sensor_id;sensor_type;location;lat;lon;timestamp;P1;durP1;ratioP1;P2;durP2;ratioP2
41456;SDS011;27197;51.752;5.220;2023-02-28T08:43:30;3.52;;;1.10;;
41456;SDS011;27197;51.752;5.220;2023-02-28T08:46:00;2.05;;;0.95;;
41456;SDS011;27197;51.752;5.220;2023-02-28T08:57:15;2.50;;;1.25;;
41456;SDS011;27197;51.752;5.220;2023-02-28T08:59:44;2.58;;;1.25;;
41456;SDS011;27197;51.752;5.220;2023-02-28T09:02:20;1.98;;;1.22;;
41456;SDS011;27197;51.752;5.220;2023-02-28T09:05:06;2.42;;;1.17;;
41456;SDS011;27197;51.752;5.220;2023-02-28T09:13:16;2.17;;;1.37;;
41456;SDS011;27197;51.752;5.220;2023-02-28T09:18:39;2.67;;;1.30;;
41456;SDS011;27197;51.752;5.220;2023-02-28T09:24:04;1.90;;;1.30;;
41456;SDS011;27197;51.752;5.220;2023-02-28T09:26:42;2.12;;;1.27;;
41456;SDS011;27197;51.752;5.220;2023-02-28T09:29:05;1.85;;;1.10;;
41456;SDS011;27197;51.752;5.220;2023-02-28T09:31:34;2.52;;;1.10;;
41456;SDS011;27197;51.752;5.220;2023-02-28T09:34:04;3.00;;;0.90;;
41456;SDS011;27197;51.752;5.220;2023-02-28T09:39:24;1.87;;;1.00;;
41456;SDS011;27197;51.752;5.220;2023-02-28T09:50:11;2.33;;;1.20;;
41456;SDS011;27197;51.752;5.220;2023-02-28T09:52:21;2.00;;;1.30;;
41456;SDS011;27197;51.752;5.220;2023-02-28T09:57:43;1.60;;;0.93;;
41456;SDS011;27197;51.752;5.220;2023-02-28T10:00:28;3.98;;;1.30;;
41456;SDS011;27197;51.752;5.220;2023-02-28T10:02:52;2.30;;;1.52;;
41456;SDS011;27197;51.752;5.220;2023-02-28T10:05:21;1.80;;;1.10;;
41456;SDS011;27197;51.752;5.220;2023-02-28T10:11:06;2.25;;;1.27;;
41456;SDS011;27197;51.752;5.220;2023-02-28T10:14:03;2.02;;;1.35;;
41456;SDS011;27197;51.752;5.220;2023-02-28T10:16:46;3.02;;;1.40;;
41456;SDS011;27197;51.752;5.220;2023-02-28T10:19:24;2.47;;;1.00;;
41456;SDS011;27197;51.752;5.220;2023-02-28T10:22:05;2.72;;;1.22;;
41456;SDS011;27197;51.752;5.220;2023-02-28T10:24:47;2.20;;;1.07;;
41456;SDS011;27197;51.752;5.220;2023-02-28T10:27:18;3.98;;;1.20;;
41456;SDS011;27197;51.752;5.220;2023-02-28T10:29:50;2.15;;;1.50;;
41456;SDS011;27197;51.752;5.220;2023-02-28T10:32:27;2.62;;;1.35;;
41456;SDS011;27197;51.752;5.220;2023-02-28T10:41:07;2.62;;;1.50;;
41456;SDS011;27197;51.752;5.220;2023-02-28T10:43:43;1.90;;;1.22;;
41456;SDS011;27197;51.752;5.220;2023-02-28T11:01:57;1.55;;;1.20;;
41456;SDS011;27197;51.752;5.220;2023-02-28T11:07:50;1.50;;;1.00;;
41456;SDS011;27197;51.752;5.220;2023-02-28T11:13:20;1.85;;;1.05;;
41456;SDS011;27197;51.752;5.220;2023-02-28T11:18:53;1.70;;;1.10;;
41456;SDS011;27197;51.752;5.220;2023-02-28T11:27:40;2.10;;;1.10;;
41456;SDS011;27197;51.752;5.220;2023-02-28T11:30:05;1.95;;;0.93;;
41456;SDS011;27197;51.752;5.220;2023-02-28T11:32:35;3.20;;;1.10;;
41456;SDS011;27197;51.752;5.220;2023-02-28T11:35:18;1.40;;;0.98;;
41456;SDS011;27197;51.752;5.220;2023-02-28T11:38:13;2.45;;;1.07;;
41456;SDS011;27197;51.752;5.220;2023-02-28T11:51:59;1.50;;;1.00;;
41456;SDS011;27197;51.752;5.220;2023-02-28T11:57:32;1.42;;;0.93;;
41456;SDS011;27197;51.752;5.220;2023-02-28T12:00:07;1.95;;;1.20;;
41456;SDS011;27197;51.752;5.220;2023-02-28T12:02:44;1.95;;;1.00;;
41456;SDS011;27197;51.752;5.220;2023-02-28T12:05:38;2.08;;;1.05;;
41456;SDS011;27197;51.752;5.220;2023-02-28T12:11:00;2.27;;;1.12;;
41456;SDS011;27197;51.752;5.220;2023-02-28T12:13:33;2.10;;;1.00;;
41456;SDS011;27197;51.752;5.220;2023-02-28T12:19:17;1.80;;;1.00;;
41456;SDS011;27197;51.752;5.220;2023-02-28T12:29:58;2.05;;;1.30;;
41456;SDS011;27197;51.752;5.220;2023-02-28T12:32:32;1.65;;;1.00;;
41456;SDS011;27197;51.752;5.220;2023-02-28T12:37:55;1.37;;;0.90;;
41456;SDS011;27197;51.752;5.220;2023-02-28T12:43:26;1.37;;;0.93;;
41456;SDS011;27197;51.752;5.220;2023-02-28T12:46:12;2.05;;;1.00;;
41456;SDS011;27197;51.752;5.220;2023-02-28T12:48:50;1.40;;;0.90;;
41456;SDS011;27197;51.752;5.220;2023-02-28T12:51:22;1.72;;;1.00;;
41456;SDS011;27197;51.752;5.220;2023-02-28T12:53:58;1.95;;;1.20;;
41456;SDS011;27197;51.752;5.220;2023-02-28T12:59:19;3.25;;;1.10;;
41456;SDS011;27197;51.752;5.220;2023-02-28T13:02:00;1.95;;;0.95;;
41456;SDS011;27197;51.752;5.220;2023-02-28T13:04:42;2.20;;;1.07;;
41456;SDS011;27197;51.752;5.220;2023-02-28T13:09:56;3.15;;;1.20;;
41456;SDS011;27197;51.752;5.220;2023-02-28T13:12:54;3.70;;;1.40;;
41456;SDS011;27197;51.752;5.220;2023-02-28T13:15:25;3.95;;;1.20;;
41456;SDS011;27197;51.752;5.220;2023-02-28T13:17:58;4.92;;;1.30;;
41456;SDS011;27197;51.752;5.220;2023-02-28T13:20:46;3.65;;;1.05;;
41456;SDS011;27197;51.752;5.220;2023-02-28T13:26:12;2.95;;;1.12;;
41456;SDS011;27197;51.752;5.220;2023-02-28T13:28:57;2.42;;;1.10;;
41456;SDS011;27197;51.752;5.220;2023-02-28T13:37:32;2.47;;;1.00;;
41456;SDS011;27197;51.752;5.220;2023-02-28T13:40:00;2.87;;;1.42;;
41456;SDS011;27197;51.752;5.220;2023-02-28T13:45:24;2.08;;;1.12;;
41456;SDS011;27197;51.752;5.220;2023-02-28T13:48:02;2.52;;;1.02;;
41456;SDS011;27197;51.752;5.220;2023-02-28T13:50:53;2.52;;;0.95;;
41456;SDS011;27197;51.752;5.220;2023-02-28T13:53:40;1.72;;;1.00;;
41456;SDS011;27197;51.752;5.220;2023-02-28T13:56:24;3.45;;;0.90;;
41456;SDS011;27197;51.752;5.220;2023-02-28T13:58:57;2.10;;;1.27;;
41456;SDS011;27197;51.752;5.220;2023-02-28T14:01:35;3.62;;;1.20;;
41456;SDS011;27197;51.752;5.220;2023-02-28T14:04:13;2.08;;;1.12;;
41456;SDS011;27197;51.752;5.220;2023-02-28T14:06:45;2.08;;;1.10;;
41456;SDS011;27197;51.752;5.220;2023-02-28T14:09:19;2.25;;;0.88;;
41456;SDS011;27197;51.752;5.220;2023-02-28T14:11:46;1.35;;;1.00;;
41456;SDS011;27197;51.752;5.220;2023-02-28T14:17:00;3.33;;;1.00;;
41456;SDS011;27197;51.752;5.220;2023-02-28T14:19:36;2.60;;;1.10;;
41456;SDS011;27197;51.752;5.220;2023-02-28T14:27:26;1.37;;;0.82;;
41456;SDS011;27197;51.752;5.220;2023-02-28T14:30:03;2.52;;;1.15;;
41456;SDS011;27197;51.752;5.220;2023-02-28T14:32:37;2.62;;;0.90;;
41456;SDS011;27197;51.752;5.220;2023-02-28T14:37:53;2.90;;;1.00;;
41456;SDS011;27197;51.752;5.220;2023-02-28T14:40:32;2.37;;;0.90;;
41456;SDS011;27197;51.752;5.220;2023-02-28T14:43:02;1.82;;;1.00;;
41456;SDS011;27197;51.752;5.220;2023-02-28T14:45:32;1.65;;;0.90;;
41456;SDS011;27197;51.752;5.220;2023-02-28T14:48:08;3.35;;;1.15;;
41456;SDS011;27197;51.752;5.220;2023-02-28T14:50:33;5.03;;;1.50;;
41456;SDS011;27197;51.752;5.220;2023-02-28T14:53:01;7.72;;;1.37;;
41456;SDS011;27197;51.752;5.220;2023-02-28T14:55:33;3.75;;;1.80;;
41456;SDS011;27197;51.752;5.220;2023-02-28T14:58:17;2.83;;;1.25;;
41456;SDS011;27197;51.752;5.220;2023-02-28T15:01:00;3.62;;;1.00;;
41456;SDS011;27197;51.752;5.220;2023-02-28T15:03:39;2.95;;;1.45;;
41456;SDS011;27197;51.752;5.220;2023-02-28T15:06:14;1.67;;;0.95;;
41456;SDS011;27197;51.752;5.220;2023-02-28T15:13:51;5.50;;;0.98;;
41456;SDS011;27197;51.752;5.220;2023-02-28T15:16:17;4.70;;;1.35;;
41456;SDS011;27197;51.752;5.220;2023-02-28T15:18:52;3.27;;;1.10;;
41456;SDS011;27197;51.752;5.220;2023-02-28T15:21:20;3.35;;;1.15;;
41456;SDS011;27197;51.752;5.220;2023-02-28T15:26:45;2.47;;;1.20;;
41456;SDS011;27197;51.752;5.220;2023-02-28T15:29:22;2.83;;;0.90;;
41456;SDS011;27197;51.752;5.220;2023-02-28T15:31:49;3.45;;;1.52;;
41456;SDS011;27197;51.752;5.220;2023-02-28T15:34:22;3.22;;;1.17;;
41456;SDS011;27197;51.752;5.220;2023-02-28T15:39:55;2.40;;;1.32;;
41456;SDS011;27197;51.752;5.220;2023-02-28T15:42:41;3.22;;;1.60;;
41456;SDS011;27197;51.752;5.220;2023-02-28T15:47:57;2.17;;;1.15;;
41456;SDS011;27197;51.752;5.220;2023-02-28T15:53:23;2.20;;;1.17;;
41456;SDS011;27197;51.752;5.220;2023-02-28T15:56:05;2.52;;;1.00;;
41456;SDS011;27197;51.752;5.220;2023-02-28T15:58:46;3.02;;;1.40;;
41456;SDS011;27197;51.752;5.220;2023-02-28T16:01:25;2.17;;;1.02;;
41456;SDS011;27197;51.752;5.220;2023-02-28T16:03:55;1.98;;;1.40;;
41456;SDS011;27197;51.752;5.220;2023-02-28T16:06:34;1.75;;;1.10;;
41456;SDS011;27197;51.752;5.220;2023-02-28T16:09:04;3.50;;;1.35;;
41456;SDS011;27197;51.752;5.220;2023-02-28T16:11:35;2.55;;;1.20;;
41456;SDS011;27197;51.752;5.220;2023-02-28T16:14:04;2.00;;;0.95;;
41456;SDS011;27197;51.752;5.220;2023-02-28T16:16:41;1.85;;;1.00;;
41456;SDS011;27197;51.752;5.220;2023-02-28T16:19:07;3.37;;;1.27;;
41456;SDS011;27197;51.752;5.220;2023-02-28T16:21:36;2.35;;;1.20;;
41456;SDS011;27197;51.752;5.220;2023-02-28T16:27:10;2.02;;;1.32;;
41456;SDS011;27197;51.752;5.220;2023-02-28T16:29:36;1.75;;;1.10;;
41456;SDS011;27197;51.752;5.220;2023-02-28T16:32:06;1.65;;;1.00;;
41456;SDS011;27197;51.752;5.220;2023-02-28T16:34:35;4.85;;;1.72;;
41456;SDS011;27197;51.752;5.220;2023-02-28T16:37:05;2.60;;;1.47;;
41456;SDS011;27197;51.752;5.220;2023-02-28T16:39:31;1.67;;;1.00;;
41456;SDS011;27197;51.752;5.220;2023-02-28T16:41:58;1.50;;;0.95;;
41456;SDS011;27197;51.752;5.220;2023-02-28T16:44:28;1.70;;;0.93;;
41456;SDS011;27197;51.752;5.220;2023-02-28T16:46:55;1.67;;;1.02;;
41456;SDS011;27197;51.752;5.220;2023-02-28T16:49:25;2.65;;;1.52;;
41456;SDS011;27197;51.752;5.220;2023-02-28T16:51:53;1.98;;;1.15;;
41456;SDS011;27197;51.752;5.220;2023-02-28T16:54:22;2.98;;;1.25;;
41456;SDS011;27197;51.752;5.220;2023-02-28T16:56:52;2.22;;;1.20;;
41456;SDS011;27197;51.752;5.220;2023-02-28T16:59:21;2.13;;;1.20;;
41456;SDS011;27197;51.752;5.220;2023-02-28T17:01:48;2.40;;;0.98;;
41456;SDS011;27197;51.752;5.220;2023-02-28T17:04:15;2.92;;;1.05;;
41456;SDS011;27197;51.752;5.220;2023-02-28T17:06:43;3.00;;;1.22;;
41456;SDS011;27197;51.752;5.220;2023-02-28T17:09:17;2.73;;;0.90;;
41456;SDS011;27197;51.752;5.220;2023-02-28T17:11:46;4.25;;;1.10;;
41456;SDS011;27197;51.752;5.220;2023-02-28T17:14:14;3.87;;;1.32;;
41456;SDS011;27197;51.752;5.220;2023-02-28T17:16:41;3.27;;;1.30;;
41456;SDS011;27197;51.752;5.220;2023-02-28T17:19:13;4.03;;;1.30;;
41456;SDS011;27197;51.752;5.220;2023-02-28T17:21:41;2.33;;;1.20;;
41456;SDS011;27197;51.752;5.220;2023-02-28T17:24:09;1.47;;;1.12;;
41456;SDS011;27197;51.752;5.220;2023-02-28T17:26:40;2.52;;;1.00;;
41456;SDS011;27197;51.752;5.220;2023-02-28T17:29:12;2.33;;;1.45;;
41456;SDS011;27197;51.752;5.220;2023-02-28T17:31:38;2.72;;;1.00;;
41456;SDS011;27197;51.752;5.220;2023-02-28T17:34:05;3.02;;;1.62;;
41456;SDS011;27197;51.752;5.220;2023-02-28T17:36:33;2.17;;;1.15;;
41456;SDS011;27197;51.752;5.220;2023-02-28T17:39:02;3.00;;;1.15;;
41456;SDS011;27197;51.752;5.220;2023-02-28T17:41:29;3.95;;;1.32;;
41456;SDS011;27197;51.752;5.220;2023-02-28T17:43:57;2.12;;;1.40;;
41456;SDS011;27197;51.752;5.220;2023-02-28T17:46:24;2.47;;;1.15;;
41456;SDS011;27197;51.752;5.220;2023-02-28T17:48:53;2.20;;;1.12;;
41456;SDS011;27197;51.752;5.220;2023-02-28T17:51:22;2.58;;;1.10;;
41456;SDS011;27197;51.752;5.220;2023-02-28T17:53:50;5.05;;;1.50;;
41456;SDS011;27197;51.752;5.220;2023-02-28T17:56:21;1.50;;;0.90;;
41456;SDS011;27197;51.752;5.220;2023-02-28T17:58:49;2.02;;;1.10;;
41456;SDS011;27197;51.752;5.220;2023-02-28T18:01:19;3.50;;;1.25;;
41456;SDS011;27197;51.752;5.220;2023-02-28T18:03:51;1.62;;;1.15;;
41456;SDS011;27197;51.752;5.220;2023-02-28T18:06:17;3.25;;;1.20;;
41456;SDS011;27197;51.752;5.220;2023-02-28T18:08:46;1.60;;;1.00;;
41456;SDS011;27197;51.752;5.220;2023-02-28T18:11:18;2.45;;;1.30;;
41456;SDS011;27197;51.752;5.220;2023-02-28T18:13:49;1.72;;;1.22;;
41456;SDS011;27197;51.752;5.220;2023-02-28T18:16:17;2.25;;;1.05;;
41456;SDS011;27197;51.752;5.220;2023-02-28T18:18:45;2.25;;;1.12;;
41456;SDS011;27197;51.752;5.220;2023-02-28T18:21:13;1.60;;;1.10;;
41456;SDS011;27197;51.752;5.220;2023-02-28T18:23:43;1.82;;;1.10;;
41456;SDS011;27197;51.752;5.220;2023-02-28T18:26:14;1.98;;;1.15;;
41456;SDS011;27197;51.752;5.220;2023-02-28T18:28:45;2.92;;;1.40;;
41456;SDS011;27197;51.752;5.220;2023-02-28T18:31:14;1.77;;;1.20;;
41456;SDS011;27197;51.752;5.220;2023-02-28T18:33:42;2.65;;;1.30;;
41456;SDS011;27197;51.752;5.220;2023-02-28T18:36:09;2.42;;;1.20;;
41456;SDS011;27197;51.752;5.220;2023-02-28T18:38:37;2.55;;;1.32;;
41456;SDS011;27197;51.752;5.220;2023-02-28T18:41:05;2.47;;;1.40;;
41456;SDS011;27197;51.752;5.220;2023-02-28T18:43:33;2.60;;;1.30;;
41456;SDS011;27197;51.752;5.220;2023-02-28T18:46:04;2.22;;;1.17;;
41456;SDS011;27197;51.752;5.220;2023-02-28T18:48:32;2.67;;;1.50;;
41456;SDS011;27197;51.752;5.220;2023-02-28T18:53:26;2.58;;;1.12;;
41456;SDS011;27197;51.752;5.220;2023-02-28T18:55:54;3.22;;;1.50;;
41456;SDS011;27197;51.752;5.220;2023-02-28T18:58:22;1.95;;;1.37;;
41456;SDS011;27197;51.752;5.220;2023-02-28T19:00:49;2.47;;;1.20;;
41456;SDS011;27197;51.752;5.220;2023-02-28T19:03:17;2.10;;;1.35;;
41456;SDS011;27197;51.752;5.220;2023-02-28T19:05:45;3.60;;;1.62;;
41456;SDS011;27197;51.752;5.220;2023-02-28T19:08:12;2.47;;;1.67;;
41456;SDS011;27197;51.752;5.220;2023-02-28T19:10:41;2.52;;;1.20;;
41456;SDS011;27197;51.752;5.220;2023-02-28T19:13:10;2.90;;;1.50;;
41456;SDS011;27197;51.752;5.220;2023-02-28T19:15:38;2.83;;;1.50;;
41456;SDS011;27197;51.752;5.220;2023-02-28T19:20:32;2.22;;;1.50;;
41456;SDS011;27197;51.752;5.220;2023-02-28T19:23:02;3.17;;;1.35;;
41456;SDS011;27197;51.752;5.220;2023-02-28T19:25:28;2.40;;;1.67;;
41456;SDS011;27197;51.752;5.220;2023-02-28T19:27:55;2.47;;;1.55;;
41456;SDS011;27197;51.752;5.220;2023-02-28T19:30:23;2.00;;;1.45;;
41456;SDS011;27197;51.752;5.220;2023-02-28T19:32:51;2.70;;;1.52;;
41456;SDS011;27197;51.752;5.220;2023-02-28T19:35:18;2.62;;;1.45;;
41456;SDS011;27197;51.752;5.220;2023-02-28T19:37:45;2.62;;;1.35;;
41456;SDS011;27197;51.752;5.220;2023-02-28T19:40:13;3.47;;;2.17;;
41456;SDS011;27197;51.752;5.220;2023-02-28T19:42:40;3.33;;;1.70;;
41456;SDS011;27197;51.752;5.220;2023-02-28T19:45:08;2.60;;;1.70;;
41456;SDS011;27197;51.752;5.220;2023-02-28T19:47:37;3.42;;;1.80;;
41456;SDS011;27197;51.752;5.220;2023-02-28T19:50:06;5.53;;;1.70;;
41456;SDS011;27197;51.752;5.220;2023-02-28T19:52:33;3.08;;;2.02;;
41456;SDS011;27197;51.752;5.220;2023-02-28T19:55:00;3.37;;;1.90;;
41456;SDS011;27197;51.752;5.220;2023-02-28T19:57:28;3.25;;;1.80;;
41456;SDS011;27197;51.752;5.220;2023-02-28T19:59:55;3.10;;;1.90;;
41456;SDS011;27197;51.752;5.220;2023-02-28T20:02:22;2.47;;;1.65;;
41456;SDS011;27197;51.752;5.220;2023-02-28T20:04:50;2.30;;;2.00;;
41456;SDS011;27197;51.752;5.220;2023-02-28T20:07:17;3.00;;;1.90;;
41456;SDS011;27197;51.752;5.220;2023-02-28T20:09:49;3.50;;;2.00;;
41456;SDS011;27197;51.752;5.220;2023-02-28T20:12:16;3.15;;;2.00;;
41456;SDS011;27197;51.752;5.220;2023-02-28T20:14:45;3.62;;;1.80;;
41456;SDS011;27197;51.752;5.220;2023-02-28T20:17:13;2.60;;;1.72;;
41456;SDS011;27197;51.752;5.220;2023-02-28T20:19:40;3.45;;;2.20;;
41456;SDS011;27197;51.752;5.220;2023-02-28T20:22:07;2.45;;;1.98;;
41456;SDS011;27197;51.752;5.220;2023-02-28T20:24:35;3.00;;;1.90;;
41456;SDS011;27197;51.752;5.220;2023-02-28T20:27:04;3.37;;;2.00;;
41456;SDS011;27197;51.752;5.220;2023-02-28T20:29:32;3.27;;;1.90;;
41456;SDS011;27197;51.752;5.220;2023-02-28T20:31:59;3.75;;;1.80;;
41456;SDS011;27197;51.752;5.220;2023-02-28T20:34:27;4.30;;;2.15;;
41456;SDS011;27197;51.752;5.220;2023-02-28T20:36:54;2.67;;;1.80;;
41456;SDS011;27197;51.752;5.220;2023-02-28T20:39:23;2.90;;;1.90;;
41456;SDS011;27197;51.752;5.220;2023-02-28T20:41:52;3.80;;;1.85;;
41456;SDS011;27197;51.752;5.220;2023-02-28T20:44:20;3.90;;;2.00;;
41456;SDS011;27197;51.752;5.220;2023-02-28T20:46:47;3.05;;;2.00;;
41456;SDS011;27197;51.752;5.220;2023-02-28T20:51:42;3.00;;;1.72;;
41456;SDS011;27197;51.752;5.220;2023-02-28T20:54:14;3.42;;;2.17;;
41456;SDS011;27197;51.752;5.220;2023-02-28T20:56:39;3.08;;;1.90;;
41456;SDS011;27197;51.752;5.220;2023-02-28T20:59:08;3.15;;;1.90;;
41456;SDS011;27197;51.752;5.220;2023-02-28T21:01:35;3.05;;;1.70;;
41456;SDS011;27197;51.752;5.220;2023-02-28T21:04:03;2.87;;;1.87;;
41456;SDS011;27197;51.752;5.220;2023-02-28T21:06:34;3.05;;;2.00;;
41456;SDS011;27197;51.752;5.220;2023-02-28T21:09:07;3.98;;;2.15;;
41456;SDS011;27197;51.752;5.220;2023-02-28T21:11:31;3.72;;;1.95;;
41456;SDS011;27197;51.752;5.220;2023-02-28T21:14:00;2.77;;;1.92;;
41456;SDS011;27197;51.752;5.220;2023-02-28T21:16:27;3.17;;;2.15;;
41456;SDS011;27197;51.752;5.220;2023-02-28T21:18:55;2.72;;;1.92;;
41456;SDS011;27197;51.752;5.220;2023-02-28T21:21:24;2.67;;;1.82;;
41456;SDS011;27197;51.752;5.220;2023-02-28T21:23:52;2.95;;;1.85;;
41456;SDS011;27197;51.752;5.220;2023-02-28T21:26:20;3.00;;;2.08;;
41456;SDS011;27197;51.752;5.220;2023-02-28T21:31:17;3.87;;;2.12;;
41456;SDS011;27197;51.752;5.220;2023-02-28T21:33:44;2.80;;;2.10;;
41456;SDS011;27197;51.752;5.220;2023-02-28T21:36:18;3.75;;;1.90;;
41456;SDS011;27197;51.752;5.220;2023-02-28T21:38:44;2.80;;;1.92;;
41456;SDS011;27197;51.752;5.220;2023-02-28T21:41:16;3.37;;;2.10;;
41456;SDS011;27197;51.752;5.220;2023-02-28T21:43:43;3.12;;;2.10;;
41456;SDS011;27197;51.752;5.220;2023-02-28T21:46:16;3.10;;;2.17;;
41456;SDS011;27197;51.752;5.220;2023-02-28T21:48:40;5.20;;;2.67;;
41456;SDS011;27197;51.752;5.220;2023-02-28T21:51:09;3.90;;;2.55;;
41456;SDS011;27197;51.752;5.220;2023-02-28T21:53:39;3.95;;;2.33;;
41456;SDS011;27197;51.752;5.220;2023-02-28T21:56:10;3.70;;;2.17;;
41456;SDS011;27197;51.752;5.220;2023-02-28T21:58:33;2.87;;;2.25;;
41456;SDS011;27197;51.752;5.220;2023-02-28T22:01:08;3.07;;;2.30;;
41456;SDS011;27197;51.752;5.220;2023-02-28T22:03:37;4.37;;;2.62;;
41456;SDS011;27197;51.752;5.220;2023-02-28T22:06:13;4.08;;;2.17;;
41456;SDS011;27197;51.752;5.220;2023-02-28T22:08:38;3.67;;;2.08;;
41456;SDS011;27197;51.752;5.220;2023-02-28T22:11:06;3.55;;;2.20;;
41456;SDS011;27197;51.752;5.220;2023-02-28T22:13:35;3.02;;;2.22;;
41456;SDS011;27197;51.752;5.220;2023-02-28T22:16:08;4.00;;;1.85;;
41456;SDS011;27197;51.752;5.220;2023-02-28T22:18:36;3.50;;;2.15;;
41456;SDS011;27197;51.752;5.220;2023-02-28T22:21:04;3.87;;;2.22;;
41456;SDS011;27197;51.752;5.220;2023-02-28T22:23:31;3.42;;;2.30;;
41456;SDS011;27197;51.752;5.220;2023-02-28T22:25:59;4.20;;;2.20;;
41456;SDS011;27197;51.752;5.220;2023-02-28T22:28:27;3.12;;;2.15;;
41456;SDS011;27197;51.752;5.220;2023-02-28T22:30:56;4.25;;;2.37;;
41456;SDS011;27197;51.752;5.220;2023-02-28T22:33:29;3.45;;;2.05;;
41456;SDS011;27197;51.752;5.220;2023-02-28T22:35:53;3.72;;;2.33;;
41456;SDS011;27197;51.752;5.220;2023-02-28T22:38:20;4.83;;;2.40;;
41456;SDS011;27197;51.752;5.220;2023-02-28T22:40:48;4.70;;;2.77;;
41456;SDS011;27197;51.752;5.220;2023-02-28T22:43:15;4.00;;;2.55;;
41456;SDS011;27197;51.752;5.220;2023-02-28T22:45:44;4.60;;;2.37;;
41456;SDS011;27197;51.752;5.220;2023-02-28T22:48:16;3.05;;;2.27;;
41456;SDS011;27197;51.752;5.220;2023-02-28T22:50:40;3.67;;;2.17;;
41456;SDS011;27197;51.752;5.220;2023-02-28T22:53:08;5.00;;;2.70;;
41456;SDS011;27197;51.752;5.220;2023-02-28T22:55:35;3.30;;;2.60;;
41456;SDS011;27197;51.752;5.220;2023-02-28T22:58:02;3.87;;;2.73;;
41456;SDS011;27197;51.752;5.220;2023-02-28T23:02:58;3.30;;;2.42;;
41456;SDS011;27197;51.752;5.220;2023-02-28T23:05:29;4.08;;;2.77;;
41456;SDS011;27197;51.752;5.220;2023-02-28T23:07:57;8.28;;;2.70;;
41456;SDS011;27197;51.752;5.220;2023-02-28T23:10:26;3.37;;;2.42;;
41456;SDS011;27197;51.752;5.220;2023-02-28T23:12:53;3.08;;;2.00;;
41456;SDS011;27197;51.752;5.220;2023-02-28T23:15:22;3.92;;;2.30;;
41456;SDS011;27197;51.752;5.220;2023-02-28T23:17:49;4.30;;;2.62;;
41456;SDS011;27197;51.752;5.220;2023-02-28T23:22:44;3.50;;;2.40;;
41456;SDS011;27197;51.752;5.220;2023-02-28T23:25:13;4.08;;;2.77;;
41456;SDS011;27197;51.752;5.220;2023-02-28T23:27:40;4.15;;;2.70;;
41456;SDS011;27197;51.752;5.220;2023-02-28T23:30:10;4.45;;;2.77;;
41456;SDS011;27197;51.752;5.220;2023-02-28T23:32:38;2.75;;;2.25;;
41456;SDS011;27197;51.752;5.220;2023-02-28T23:35:08;3.75;;;2.58;;
41456;SDS011;27197;51.752;5.220;2023-02-28T23:37:36;4.47;;;2.53;;
41456;SDS011;27197;51.752;5.220;2023-02-28T23:40:08;4.83;;;2.83;;
41456;SDS011;27197;51.752;5.220;2023-02-28T23:42:35;3.40;;;2.45;;
41456;SDS011;27197;51.752;5.220;2023-02-28T23:45:03;3.58;;;2.87;;
41456;SDS011;27197;51.752;5.220;2023-02-28T23:47:32;4.60;;;2.70;;
41456;SDS011;27197;51.752;5.220;2023-02-28T23:49:59;3.95;;;2.92;;
41456;SDS011;27197;51.752;5.220;2023-02-28T23:52:27;3.65;;;2.67;;
